sensor_id;sensor_type;location;lat;lon;timestamp;P1;durP1;ratioP1;P2;durP2;ratioP2
20146;SDS011;10234;50.856;15.716;2024-02-28T00:01:03;45.97;;;17.75;;
20146;SDS011;10234;50.856;15.716;2024-02-28T00:03:30;48.88;;;18.60;;
20146;SDS011;10234;50.856;15.716;2024-02-28T00:05:58;42.75;;;18.52;;
20146;SDS011;10234;50.856;15.716;2024-02-28T00:08:25;42.50;;;18.15;;
20146;SDS011;10234;50.856;15.716;2024-02-28T00:10:52;39.55;;;17.75;;
20146;SDS011;10234;50.856;15.716;2024-02-28T00:13:19;45.55;;;16.77;;
20146;SDS011;10234;50.856;15.716;2024-02-28T00:15:49;47.50;;;17.33;;
20146;SDS011;10234;50.856;15.716;2024-02-28T00:18:16;47.22;;;17.60;;
20146;SDS011;10234;50.856;15.716;2024-02-28T00:20:43;43.97;;;16.85;;
20146;SDS011;10234;50.856;15.716;2024-02-28T00:23:11;43.08;;;18.13;;
20146;SDS011;10234;50.856;15.716;2024-02-28T00:25:38;53.22;;;18.35;;
20146;SDS011;10234;50.856;15.716;2024-02-28T00:28:05;44.03;;;17.73;;
20146;SDS011;10234;50.856;15.716;2024-02-28T00:30:32;39.10;;;16.77;;
20146;SDS011;10234;50.856;15.716;2024-02-28T00:33:00;46.20;;;17.15;;
20146;SDS011;10234;50.856;15.716;2024-02-28T00:35:27;39.53;;;15.73;;
20146;SDS011;10234;50.856;15.716;2024-02-28T00:37:58;40.88;;;15.50;;
20146;SDS011;10234;50.856;15.716;2024-02-28T00:40:24;47.25;;;16.52;;
20146;SDS011;10234;50.856;15.716;2024-02-28T00:42:51;36.42;;;15.45;;
20146;SDS011;10234;50.856;15.716;2024-02-28T00:45:18;38.33;;;15.40;;
20146;SDS011;10234;50.856;15.716;2024-02-28T00:47:45;38.72;;;15.13;;
20146;SDS011;10234;50.856;15.716;2024-02-28T00:50:13;37.17;;;15.00;;
20146;SDS011;10234;50.856;15.716;2024-02-28T00:52:40;39.95;;;13.70;;
20146;SDS011;10234;50.856;15.716;2024-02-28T00:55:07;36.30;;;14.95;;
20146;SDS011;10234;50.856;15.716;2024-02-28T00:57:34;29.92;;;12.98;;
20146;SDS011;10234;50.856;15.716;2024-02-28T01:00:01;29.88;;;11.63;;
20146;SDS011;10234;50.856;15.716;2024-02-28T01:02:30;26.30;;;12.30;;
20146;SDS011;10234;50.856;15.716;2024-02-28T01:04:57;35.58;;;12.48;;
20146;SDS011;10234;50.856;15.716;2024-02-28T01:07:26;32.63;;;12.32;;
20146;SDS011;10234;50.856;15.716;2024-02-28T01:09:53;28.83;;;11.63;;
20146;SDS011;10234;50.856;15.716;2024-02-28T01:12:20;29.60;;;11.77;;
20146;SDS011;10234;50.856;15.716;2024-02-28T01:14:46;33.45;;;11.07;;
20146;SDS011;10234;50.856;15.716;2024-02-28T01:17:14;29.83;;;11.63;;
20146;SDS011;10234;50.856;15.716;2024-02-28T01:19:40;31.88;;;11.18;;
20146;SDS011;10234;50.856;15.716;2024-02-28T01:22:07;24.83;;;10.93;;
20146;SDS011;10234;50.856;15.716;2024-02-28T01:24:36;32.17;;;12.30;;
20146;SDS011;10234;50.856;15.716;2024-02-28T01:27:03;32.10;;;13.20;;
20146;SDS011;10234;50.856;15.716;2024-02-28T01:29:30;29.48;;;12.48;;
20146;SDS011;10234;50.856;15.716;2024-02-28T01:31:57;24.13;;;10.40;;
20146;SDS011;10234;50.856;15.716;2024-02-28T01:34:24;24.73;;;11.32;;
20146;SDS011;10234;50.856;15.716;2024-02-28T01:36:51;27.42;;;11.13;;
20146;SDS011;10234;50.856;15.716;2024-02-28T01:39:18;24.52;;;10.25;;
20146;SDS011;10234;50.856;15.716;2024-02-28T01:41:51;28.63;;;10.32;;
20146;SDS011;10234;50.856;15.716;2024-02-28T01:44:19;23.33;;;11.15;;
20146;SDS011;10234;50.856;15.716;2024-02-28T01:46:46;33.70;;;12.90;;
20146;SDS011;10234;50.856;15.716;2024-02-28T01:49:13;32.25;;;11.88;;
20146;SDS011;10234;50.856;15.716;2024-02-28T01:51:42;30.80;;;11.90;;
20146;SDS011;10234;50.856;15.716;2024-02-28T01:54:11;31.33;;;11.23;;
20146;SDS011;10234;50.856;15.716;2024-02-28T01:56:37;33.38;;;12.45;;
20146;SDS011;10234;50.856;15.716;2024-02-28T01:59:07;26.48;;;11.70;;
20146;SDS011;10234;50.856;15.716;2024-02-28T02:01:36;29.77;;;10.77;;
20146;SDS011;10234;50.856;15.716;2024-02-28T02:04:03;23.63;;;10.55;;
20146;SDS011;10234;50.856;15.716;2024-02-28T02:06:31;20.85;;;10.10;;
20146;SDS011;10234;50.856;15.716;2024-02-28T02:08:58;30.15;;;12.00;;
20146;SDS011;10234;50.856;15.716;2024-02-28T02:11:25;32.60;;;10.68;;
20146;SDS011;10234;50.856;15.716;2024-02-28T02:13:52;24.98;;;10.85;;
20146;SDS011;10234;50.856;15.716;2024-02-28T02:16:21;28.60;;;11.35;;
20146;SDS011;10234;50.856;15.716;2024-02-28T02:18:51;22.95;;;9.90;;
20146;SDS011;10234;50.856;15.716;2024-02-28T02:21:18;26.63;;;10.43;;
20146;SDS011;10234;50.856;15.716;2024-02-28T02:23:50;27.45;;;11.35;;
20146;SDS011;10234;50.856;15.716;2024-02-28T02:26:17;19.92;;;10.13;;
20146;SDS011;10234;50.856;15.716;2024-02-28T02:28:44;31.33;;;10.38;;
20146;SDS011;10234;50.856;15.716;2024-02-28T02:31:11;27.75;;;11.98;;
20146;SDS011;10234;50.856;15.716;2024-02-28T02:33:39;26.25;;;10.68;;
20146;SDS011;10234;50.856;15.716;2024-02-28T02:36:06;28.92;;;10.98;;
20146;SDS011;10234;50.856;15.716;2024-02-28T02:38:33;25.13;;;10.93;;
20146;SDS011;10234;50.856;15.716;2024-02-28T02:41:01;27.30;;;11.80;;
20146;SDS011;10234;50.856;15.716;2024-02-28T02:43:28;28.05;;;10.95;;
20146;SDS011;10234;50.856;15.716;2024-02-28T02:45:55;21.33;;;10.82;;
20146;SDS011;10234;50.856;15.716;2024-02-28T02:48:22;25.55;;;10.80;;
20146;SDS011;10234;50.856;15.716;2024-02-28T02:50:49;29.95;;;11.45;;
20146;SDS011;10234;50.856;15.716;2024-02-28T02:53:16;32.05;;;12.23;;
20146;SDS011;10234;50.856;15.716;2024-02-28T02:55:44;32.35;;;12.18;;
20146;SDS011;10234;50.856;15.716;2024-02-28T02:58:12;29.85;;;12.55;;
20146;SDS011;10234;50.856;15.716;2024-02-28T03:00:39;25.83;;;11.50;;
20146;SDS011;10234;50.856;15.716;2024-02-28T03:03:06;27.25;;;11.82;;
20146;SDS011;10234;50.856;15.716;2024-02-28T03:05:33;25.35;;;10.50;;
20146;SDS011;10234;50.856;15.716;2024-02-28T03:08:00;25.27;;;10.32;;
20146;SDS011;10234;50.856;15.716;2024-02-28T03:10:27;26.30;;;9.80;;
20146;SDS011;10234;50.856;15.716;2024-02-28T03:12:54;24.13;;;10.23;;
20146;SDS011;10234;50.856;15.716;2024-02-28T03:15:23;21.20;;;10.32;;
20146;SDS011;10234;50.856;15.716;2024-02-28T03:17:50;23.73;;;9.32;;
20146;SDS011;10234;50.856;15.716;2024-02-28T03:20:17;24.00;;;9.27;;
20146;SDS011;10234;50.856;15.716;2024-02-28T03:22:43;22.08;;;9.98;;
20146;SDS011;10234;50.856;15.716;2024-02-28T03:25:10;16.75;;;8.68;;
20146;SDS011;10234;50.856;15.716;2024-02-28T03:27:37;22.10;;;8.48;;
20146;SDS011;10234;50.856;15.716;2024-02-28T03:30:05;18.80;;;9.43;;
20146;SDS011;10234;50.856;15.716;2024-02-28T03:32:33;16.15;;;8.20;;
20146;SDS011;10234;50.856;15.716;2024-02-28T03:35:00;15.65;;;8.02;;
20146;SDS011;10234;50.856;15.716;2024-02-28T03:37:29;19.27;;;9.57;;
20146;SDS011;10234;50.856;15.716;2024-02-28T03:39:56;16.02;;;8.13;;
20146;SDS011;10234;50.856;15.716;2024-02-28T03:42:23;22.20;;;9.30;;
20146;SDS011;10234;50.856;15.716;2024-02-28T03:44:50;23.83;;;9.73;;
20146;SDS011;10234;50.856;15.716;2024-02-28T03:47:17;20.67;;;9.00;;
20146;SDS011;10234;50.856;15.716;2024-02-28T03:49:45;16.42;;;8.80;;
20146;SDS011;10234;50.856;15.716;2024-02-28T03:52:12;17.67;;;8.52;;
20146;SDS011;10234;50.856;15.716;2024-02-28T03:54:41;17.35;;;8.73;;
20146;SDS011;10234;50.856;15.716;2024-02-28T03:57:08;18.58;;;9.68;;
20146;SDS011;10234;50.856;15.716;2024-02-28T03:59:35;20.73;;;9.25;;
20146;SDS011;10234;50.856;15.716;2024-02-28T04:02:02;20.27;;;7.80;;
20146;SDS011;10234;50.856;15.716;2024-02-28T04:04:29;13.57;;;8.07;;
20146;SDS011;10234;50.856;15.716;2024-02-28T04:06:57;13.95;;;8.13;;
20146;SDS011;10234;50.856;15.716;2024-02-28T04:09:24;17.70;;;7.72;;
20146;SDS011;10234;50.856;15.716;2024-02-28T04:11:51;16.73;;;7.75;;
20146;SDS011;10234;50.856;15.716;2024-02-28T04:14:18;18.85;;;8.63;;
20146;SDS011;10234;50.856;15.716;2024-02-28T04:16:45;14.05;;;8.15;;
20146;SDS011;10234;50.856;15.716;2024-02-28T04:19:12;20.08;;;8.85;;
20146;SDS011;10234;50.856;15.716;2024-02-28T04:21:39;18.20;;;8.18;;
20146;SDS011;10234;50.856;15.716;2024-02-28T04:24:08;14.20;;;8.07;;
20146;SDS011;10234;50.856;15.716;2024-02-28T04:26:35;14.50;;;7.80;;
20146;SDS011;10234;50.856;15.716;2024-02-28T04:29:02;14.98;;;7.93;;
20146;SDS011;10234;50.856;15.716;2024-02-28T04:31:31;15.88;;;8.43;;
20146;SDS011;10234;50.856;15.716;2024-02-28T04:33:58;15.77;;;7.50;;
20146;SDS011;10234;50.856;15.716;2024-02-28T04:36:25;15.20;;;8.07;;
20146;SDS011;10234;50.856;15.716;2024-02-28T04:38:52;13.27;;;8.07;;
20146;SDS011;10234;50.856;15.716;2024-02-28T04:41:20;14.88;;;7.53;;
20146;SDS011;10234;50.856;15.716;2024-02-28T04:43:47;13.18;;;7.15;;
20146;SDS011;10234;50.856;15.716;2024-02-28T04:46:14;13.68;;;6.40;;
20146;SDS011;10234;50.856;15.716;2024-02-28T04:48:40;12.73;;;6.25;;
20146;SDS011;10234;50.856;15.716;2024-02-28T04:51:07;12.93;;;6.30;;
20146;SDS011;10234;50.856;15.716;2024-02-28T04:53:34;10.10;;;5.60;;
20146;SDS011;10234;50.856;15.716;2024-02-28T04:56:01;10.55;;;6.20;;
20146;SDS011;10234;50.856;15.716;2024-02-28T04:58:29;9.18;;;5.50;;
20146;SDS011;10234;50.856;15.716;2024-02-28T05:00:56;8.15;;;5.55;;
20146;SDS011;10234;50.856;15.716;2024-02-28T05:03:23;10.85;;;5.35;;
20146;SDS011;10234;50.856;15.716;2024-02-28T05:05:50;11.80;;;6.03;;
20146;SDS011;10234;50.856;15.716;2024-02-28T05:08:19;9.38;;;4.63;;
20146;SDS011;10234;50.856;15.716;2024-02-28T05:10:46;8.23;;;5.25;;
20146;SDS011;10234;50.856;15.716;2024-02-28T05:13:13;9.02;;;5.72;;
20146;SDS011;10234;50.856;15.716;2024-02-28T05:15:41;9.95;;;5.40;;
20146;SDS011;10234;50.856;15.716;2024-02-28T05:18:08;11.60;;;6.22;;
20146;SDS011;10234;50.856;15.716;2024-02-28T05:20:35;12.30;;;5.97;;
20146;SDS011;10234;50.856;15.716;2024-02-28T05:23:02;12.05;;;7.10;;
20146;SDS011;10234;50.856;15.716;2024-02-28T05:25:29;9.15;;;6.15;;
20146;SDS011;10234;50.856;15.716;2024-02-28T05:27:56;9.45;;;5.50;;
20146;SDS011;10234;50.856;15.716;2024-02-28T05:30:23;7.80;;;5.13;;
20146;SDS011;10234;50.856;15.716;2024-02-28T05:32:51;10.13;;;6.05;;
20146;SDS011;10234;50.856;15.716;2024-02-28T05:35:18;10.73;;;5.35;;
20146;SDS011;10234;50.856;15.716;2024-02-28T05:37:45;10.48;;;6.45;;
20146;SDS011;10234;50.856;15.716;2024-02-28T05:40:12;8.82;;;5.65;;
20146;SDS011;10234;50.856;15.716;2024-02-28T05:42:39;9.93;;;5.88;;
20146;SDS011;10234;50.856;15.716;2024-02-28T05:45:07;9.50;;;6.75;;
20146;SDS011;10234;50.856;15.716;2024-02-28T05:47:35;11.95;;;5.93;;
20146;SDS011;10234;50.856;15.716;2024-02-28T05:50:04;8.52;;;5.60;;
20146;SDS011;10234;50.856;15.716;2024-02-28T05:52:31;8.82;;;6.20;;
20146;SDS011;10234;50.856;15.716;2024-02-28T05:54:58;7.75;;;5.38;;
20146;SDS011;10234;50.856;15.716;2024-02-28T05:57:25;9.35;;;5.18;;
20146;SDS011;10234;50.856;15.716;2024-02-28T05:59:52;7.65;;;5.35;;
20146;SDS011;10234;50.856;15.716;2024-02-28T06:02:19;9.75;;;5.43;;
20146;SDS011;10234;50.856;15.716;2024-02-28T06:04:46;10.57;;;5.45;;
20146;SDS011;10234;50.856;15.716;2024-02-28T06:07:14;10.10;;;5.72;;
20146;SDS011;10234;50.856;15.716;2024-02-28T06:09:41;7.28;;;5.00;;
20146;SDS011;10234;50.856;15.716;2024-02-28T06:12:08;6.95;;;4.95;;
20146;SDS011;10234;50.856;15.716;2024-02-28T06:14:35;12.70;;;6.40;;
20146;SDS011;10234;50.856;15.716;2024-02-28T06:17:02;8.63;;;5.80;;
20146;SDS011;10234;50.856;15.716;2024-02-28T06:19:29;9.00;;;5.28;;
20146;SDS011;10234;50.856;15.716;2024-02-28T06:21:56;8.52;;;5.70;;
20146;SDS011;10234;50.856;15.716;2024-02-28T06:24:24;10.02;;;6.18;;
20146;SDS011;10234;50.856;15.716;2024-02-28T06:26:51;7.85;;;4.90;;
20146;SDS011;10234;50.856;15.716;2024-02-28T06:29:18;6.35;;;4.30;;
20146;SDS011;10234;50.856;15.716;2024-02-28T06:31:49;8.68;;;5.03;;
20146;SDS011;10234;50.856;15.716;2024-02-28T06:34:16;7.93;;;4.80;;
20146;SDS011;10234;50.856;15.716;2024-02-28T06:36:43;6.78;;;4.45;;
20146;SDS011;10234;50.856;15.716;2024-02-28T06:39:10;7.22;;;4.35;;
20146;SDS011;10234;50.856;15.716;2024-02-28T06:41:39;6.20;;;4.32;;
20146;SDS011;10234;50.856;15.716;2024-02-28T06:44:06;7.75;;;4.82;;
20146;SDS011;10234;50.856;15.716;2024-02-28T06:46:33;7.15;;;4.97;;
20146;SDS011;10234;50.856;15.716;2024-02-28T06:48:59;8.43;;;5.25;;
20146;SDS011;10234;50.856;15.716;2024-02-28T06:51:26;7.90;;;5.15;;
20146;SDS011;10234;50.856;15.716;2024-02-28T06:53:53;5.85;;;4.53;;
20146;SDS011;10234;50.856;15.716;2024-02-28T06:56:20;7.53;;;4.93;;
20146;SDS011;10234;50.856;15.716;2024-02-28T06:58:48;9.60;;;5.43;;
20146;SDS011;10234;50.856;15.716;2024-02-28T07:01:15;8.13;;;5.05;;
20146;SDS011;10234;50.856;15.716;2024-02-28T07:03:43;8.02;;;4.65;;
20146;SDS011;10234;50.856;15.716;2024-02-28T07:06:11;7.57;;;4.03;;
20146;SDS011;10234;50.856;15.716;2024-02-28T07:08:38;5.30;;;3.83;;
20146;SDS011;10234;50.856;15.716;2024-02-28T07:11:04;6.40;;;4.57;;
20146;SDS011;10234;50.856;15.716;2024-02-28T07:13:39;10.02;;;6.57;;
20146;SDS011;10234;50.856;15.716;2024-02-28T07:16:07;7.10;;;4.80;;
20146;SDS011;10234;50.856;15.716;2024-02-28T07:18:34;5.82;;;5.22;;
20146;SDS011;10234;50.856;15.716;2024-02-28T07:21:01;6.72;;;3.70;;
20146;SDS011;10234;50.856;15.716;2024-02-28T07:23:28;7.55;;;3.13;;
20146;SDS011;10234;50.856;15.716;2024-02-28T07:25:55;7.32;;;3.83;;
20146;SDS011;10234;50.856;15.716;2024-02-28T07:28:22;5.68;;;4.40;;
20146;SDS011;10234;50.856;15.716;2024-02-28T07:30:49;4.85;;;3.10;;
20146;SDS011;10234;50.856;15.716;2024-02-28T07:33:17;21.52;;;10.73;;
20146;SDS011;10234;50.856;15.716;2024-02-28T07:35:44;10.35;;;6.15;;
20146;SDS011;10234;50.856;15.716;2024-02-28T07:38:11;6.80;;;3.67;;
20146;SDS011;10234;50.856;15.716;2024-02-28T07:40:38;7.03;;;5.03;;
20146;SDS011;10234;50.856;15.716;2024-02-28T07:43:05;50.60;;;36.28;;
20146;SDS011;10234;50.856;15.716;2024-02-28T07:45:32;8.55;;;6.05;;
20146;SDS011;10234;50.856;15.716;2024-02-28T07:47:59;3.85;;;3.05;;
20146;SDS011;10234;50.856;15.716;2024-02-28T07:50:27;2.50;;;2.30;;
20146;SDS011;10234;50.856;15.716;2024-02-28T07:52:55;3.90;;;2.95;;
20146;SDS011;10234;50.856;15.716;2024-02-28T07:55:22;4.60;;;2.95;;
20146;SDS011;10234;50.856;15.716;2024-02-28T07:57:50;4.20;;;2.67;;
20146;SDS011;10234;50.856;15.716;2024-02-28T08:00:17;5.57;;;3.05;;
20146;SDS011;10234;50.856;15.716;2024-02-28T08:02:45;4.07;;;3.20;;
20146;SDS011;10234;50.856;15.716;2024-02-28T08:05:13;5.10;;;3.20;;
20146;SDS011;10234;50.856;15.716;2024-02-28T08:07:41;3.45;;;2.50;;
20146;SDS011;10234;50.856;15.716;2024-02-28T08:10:09;7.00;;;4.47;;
20146;SDS011;10234;50.856;15.716;2024-02-28T08:12:36;4.40;;;3.03;;
20146;SDS011;10234;50.856;15.716;2024-02-28T08:15:04;3.53;;;2.83;;
20146;SDS011;10234;50.856;15.716;2024-02-28T08:17:31;4.05;;;2.88;;
20146;SDS011;10234;50.856;15.716;2024-02-28T08:19:58;5.65;;;3.38;;
20146;SDS011;10234;50.856;15.716;2024-02-28T08:22:25;3.88;;;3.03;;
20146;SDS011;10234;50.856;15.716;2024-02-28T08:24:53;4.45;;;3.13;;
20146;SDS011;10234;50.856;15.716;2024-02-28T08:27:20;5.05;;;3.55;;
20146;SDS011;10234;50.856;15.716;2024-02-28T08:29:48;3.65;;;2.67;;
20146;SDS011;10234;50.856;15.716;2024-02-28T08:32:17;4.93;;;2.65;;
20146;SDS011;10234;50.856;15.716;2024-02-28T08:34:44;2.70;;;2.42;;
20146;SDS011;10234;50.856;15.716;2024-02-28T08:37:11;4.05;;;3.20;;
20146;SDS011;10234;50.856;15.716;2024-02-28T08:39:38;9.50;;;4.82;;
20146;SDS011;10234;50.856;15.716;2024-02-28T08:42:10;5.00;;;3.50;;
20146;SDS011;10234;50.856;15.716;2024-02-28T08:44:37;3.25;;;2.80;;
20146;SDS011;10234;50.856;15.716;2024-02-28T08:47:04;3.33;;;2.22;;
20146;SDS011;10234;50.856;15.716;2024-02-28T08:49:33;3.53;;;1.85;;
20146;SDS011;10234;50.856;15.716;2024-02-28T08:52:00;4.00;;;2.85;;
20146;SDS011;10234;50.856;15.716;2024-02-28T08:54:28;3.35;;;1.95;;
20146;SDS011;10234;50.856;15.716;2024-02-28T08:56:55;2.45;;;2.10;;
20146;SDS011;10234;50.856;15.716;2024-02-28T08:59:23;3.25;;;2.30;;
20146;SDS011;10234;50.856;15.716;2024-02-28T09:01:50;3.95;;;2.78;;
20146;SDS011;10234;50.856;15.716;2024-02-28T09:04:17;5.25;;;3.20;;
20146;SDS011;10234;50.856;15.716;2024-02-28T09:06:44;6.00;;;3.13;;
20146;SDS011;10234;50.856;15.716;2024-02-28T09:09:11;7.80;;;4.40;;
20146;SDS011;10234;50.856;15.716;2024-02-28T09:11:37;11.40;;;5.55;;
20146;SDS011;10234;50.856;15.716;2024-02-28T09:14:04;11.48;;;8.55;;
20146;SDS011;10234;50.856;15.716;2024-02-28T09:16:33;5.10;;;3.10;;
20146;SDS011;10234;50.856;15.716;2024-02-28T09:18:59;4.53;;;3.38;;
20146;SDS011;10234;50.856;15.716;2024-02-28T09:21:26;5.03;;;3.55;;
20146;SDS011;10234;50.856;15.716;2024-02-28T09:23:53;3.72;;;2.80;;
20146;SDS011;10234;50.856;15.716;2024-02-28T09:26:20;5.60;;;2.92;;
20146;SDS011;10234;50.856;15.716;2024-02-28T09:28:47;4.95;;;3.33;;
20146;SDS011;10234;50.856;15.716;2024-02-28T09:31:14;5.47;;;3.47;;
20146;SDS011;10234;50.856;15.716;2024-02-28T09:33:43;3.97;;;2.80;;
20146;SDS011;10234;50.856;15.716;2024-02-28T09:36:11;6.03;;;2.78;;
20146;SDS011;10234;50.856;15.716;2024-02-28T09:38:38;3.65;;;3.30;;
20146;SDS011;10234;50.856;15.716;2024-02-28T09:41:06;3.53;;;3.03;;
20146;SDS011;10234;50.856;15.716;2024-02-28T09:43:35;4.82;;;2.97;;
20146;SDS011;10234;50.856;15.716;2024-02-28T09:46:07;4.55;;;3.15;;
20146;SDS011;10234;50.856;15.716;2024-02-28T09:48:36;2.67;;;2.25;;
20146;SDS011;10234;50.856;15.716;2024-02-28T09:51:06;3.67;;;3.00;;
20146;SDS011;10234;50.856;15.716;2024-02-28T09:53:35;5.22;;;4.00;;
20146;SDS011;10234;50.856;15.716;2024-02-28T09:56:02;8.77;;;5.70;;
20146;SDS011;10234;50.856;15.716;2024-02-28T09:58:29;15.93;;;10.25;;
20146;SDS011;10234;50.856;15.716;2024-02-28T10:00:58;8.68;;;5.78;;
20146;SDS011;10234;50.856;15.716;2024-02-28T10:03:28;6.05;;;4.60;;
20146;SDS011;10234;50.856;15.716;2024-02-28T10:05:57;5.88;;;4.35;;
20146;SDS011;10234;50.856;15.716;2024-02-28T10:08:25;4.95;;;3.70;;
20146;SDS011;10234;50.856;15.716;2024-02-28T10:10:54;8.10;;;5.18;;
20146;SDS011;10234;50.856;15.716;2024-02-28T10:13:21;5.32;;;4.05;;
20146;SDS011;10234;50.856;15.716;2024-02-28T10:15:49;7.22;;;3.40;;
20146;SDS011;10234;50.856;15.716;2024-02-28T10:18:16;4.65;;;3.38;;
20146;SDS011;10234;50.856;15.716;2024-02-28T10:20:43;5.20;;;4.03;;
20146;SDS011;10234;50.856;15.716;2024-02-28T10:23:10;6.65;;;4.43;;
20146;SDS011;10234;50.856;15.716;2024-02-28T10:25:43;4.63;;;3.38;;
20146;SDS011;10234;50.856;15.716;2024-02-28T10:28:10;4.47;;;3.92;;
20146;SDS011;10234;50.856;15.716;2024-02-28T10:30:39;5.53;;;3.65;;
20146;SDS011;10234;50.856;15.716;2024-02-28T10:33:09;4.53;;;2.92;;
20146;SDS011;10234;50.856;15.716;2024-02-28T10:35:37;5.78;;;3.90;;
20146;SDS011;10234;50.856;15.716;2024-02-28T10:38:05;6.43;;;3.47;;
20146;SDS011;10234;50.856;15.716;2024-02-28T10:40:32;5.03;;;2.97;;
20146;SDS011;10234;50.856;15.716;2024-02-28T10:43:01;5.15;;;3.17;;
20146;SDS011;10234;50.856;15.716;2024-02-28T10:45:30;5.10;;;3.45;;
20146;SDS011;10234;50.856;15.716;2024-02-28T10:47:57;6.45;;;3.70;;
20146;SDS011;10234;50.856;15.716;2024-02-28T10:50:25;4.55;;;3.55;;
20146;SDS011;10234;50.856;15.716;2024-02-28T10:52:51;8.13;;;4.32;;
20146;SDS011;10234;50.856;15.716;2024-02-28T10:55:21;5.15;;;3.45;;
20146;SDS011;10234;50.856;15.716;2024-02-28T10:57:50;5.53;;;3.30;;
20146;SDS011;10234;50.856;15.716;2024-02-28T11:00:26;8.05;;;5.22;;
20146;SDS011;10234;50.856;15.716;2024-02-28T11:02:53;10.00;;;4.97;;
20146;SDS011;10234;50.856;15.716;2024-02-28T11:05:20;9.60;;;5.57;;
20146;SDS011;10234;50.856;15.716;2024-02-28T11:07:50;9.90;;;6.10;;
20146;SDS011;10234;50.856;15.716;2024-02-28T11:10:18;6.43;;;4.47;;
20146;SDS011;10234;50.856;15.716;2024-02-28T11:12:54;4.90;;;3.08;;
20146;SDS011;10234;50.856;15.716;2024-02-28T11:15:24;6.75;;;4.63;;
20146;SDS011;10234;50.856;15.716;2024-02-28T11:17:53;17.92;;;9.10;;
20146;SDS011;10234;50.856;15.716;2024-02-28T11:20:20;33.90;;;15.75;;
20146;SDS011;10234;50.856;15.716;2024-02-28T11:22:48;17.38;;;7.88;;
20146;SDS011;10234;50.856;15.716;2024-02-28T11:25:15;5.60;;;3.58;;
20146;SDS011;10234;50.856;15.716;2024-02-28T11:27:45;10.40;;;5.53;;
20146;SDS011;10234;50.856;15.716;2024-02-28T11:30:13;9.60;;;5.43;;
20146;SDS011;10234;50.856;15.716;2024-02-28T11:32:42;5.22;;;3.50;;
20146;SDS011;10234;50.856;15.716;2024-02-28T11:35:09;8.20;;;4.72;;
20146;SDS011;10234;50.856;15.716;2024-02-28T11:37:37;6.50;;;3.95;;
20146;SDS011;10234;50.856;15.716;2024-02-28T11:40:06;5.63;;;3.10;;
20146;SDS011;10234;50.856;15.716;2024-02-28T11:42:35;3.85;;;2.35;;
20146;SDS011;10234;50.856;15.716;2024-02-28T11:45:02;4.28;;;2.45;;
20146;SDS011;10234;50.856;15.716;2024-02-28T11:47:30;3.83;;;2.97;;
20146;SDS011;10234;50.856;15.716;2024-02-28T11:49:59;9.80;;;5.75;;
20146;SDS011;10234;50.856;15.716;2024-02-28T11:52:27;4.88;;;2.83;;
20146;SDS011;10234;50.856;15.716;2024-02-28T11:54:56;8.35;;;5.22;;
20146;SDS011;10234;50.856;15.716;2024-02-28T11:57:23;4.38;;;2.58;;
20146;SDS011;10234;50.856;15.716;2024-02-28T11:59:50;7.55;;;4.50;;
20146;SDS011;10234;50.856;15.716;2024-02-28T12:02:18;3.95;;;3.03;;
20146;SDS011;10234;50.856;15.716;2024-02-28T12:04:45;7.57;;;4.50;;
20146;SDS011;10234;50.856;15.716;2024-02-28T12:07:16;4.13;;;3.10;;
20146;SDS011;10234;50.856;15.716;2024-02-28T12:09:43;7.28;;;4.43;;
20146;SDS011;10234;50.856;15.716;2024-02-28T12:12:11;5.10;;;3.70;;
20146;SDS011;10234;50.856;15.716;2024-02-28T12:14:38;2.20;;;1.90;;
20146;SDS011;10234;50.856;15.716;2024-02-28T12:17:07;2.33;;;2.03;;
20146;SDS011;10234;50.856;15.716;2024-02-28T12:19:35;2.92;;;2.72;;
20146;SDS011;10234;50.856;15.716;2024-02-28T12:22:02;2.10;;;1.90;;
20146;SDS011;10234;50.856;15.716;2024-02-28T12:24:30;2.53;;;2.10;;
20146;SDS011;10234;50.856;15.716;2024-02-28T12:26:57;4.60;;;2.05;;
20146;SDS011;10234;50.856;15.716;2024-02-28T12:29:24;3.60;;;2.35;;
20146;SDS011;10234;50.856;15.716;2024-02-28T12:31:51;3.88;;;2.03;;
20146;SDS011;10234;50.856;15.716;2024-02-28T12:34:18;3.95;;;2.50;;
20146;SDS011;10234;50.856;15.716;2024-02-28T12:36:46;2.85;;;2.22;;
20146;SDS011;10234;50.856;15.716;2024-02-28T12:39:13;3.88;;;2.33;;
20146;SDS011;10234;50.856;15.716;2024-02-28T12:41:41;4.53;;;2.60;;
20146;SDS011;10234;50.856;15.716;2024-02-28T12:44:08;2.97;;;1.77;;
20146;SDS011;10234;50.856;15.716;2024-02-28T12:46:35;2.08;;;1.75;;
20146;SDS011;10234;50.856;15.716;2024-02-28T12:49:02;2.97;;;2.10;;
20146;SDS011;10234;50.856;15.716;2024-02-28T12:51:36;2.90;;;2.20;;
20146;SDS011;10234;50.856;15.716;2024-02-28T12:54:04;3.25;;;2.00;;
20146;SDS011;10234;50.856;15.716;2024-02-28T12:56:32;5.60;;;3.20;;
20146;SDS011;10234;50.856;15.716;2024-02-28T12:59:01;3.17;;;2.42;;
20146;SDS011;10234;50.856;15.716;2024-02-28T13:01:28;2.22;;;1.65;;
20146;SDS011;10234;50.856;15.716;2024-02-28T13:03:55;4.35;;;2.10;;
20146;SDS011;10234;50.856;15.716;2024-02-28T13:06:22;6.00;;;3.05;;
20146;SDS011;10234;50.856;15.716;2024-02-28T13:08:52;4.30;;;2.55;;
20146;SDS011;10234;50.856;15.716;2024-02-28T13:11:20;2.88;;;2.28;;
20146;SDS011;10234;50.856;15.716;2024-02-28T13:13:48;2.50;;;1.75;;
20146;SDS011;10234;50.856;15.716;2024-02-28T13:16:18;3.15;;;2.10;;
20146;SDS011;10234;50.856;15.716;2024-02-28T13:18:46;3.60;;;2.30;;
20146;SDS011;10234;50.856;15.716;2024-02-28T13:21:13;3.72;;;2.30;;
20146;SDS011;10234;50.856;15.716;2024-02-28T13:23:40;3.22;;;2.35;;
20146;SDS011;10234;50.856;15.716;2024-02-28T13:26:07;2.75;;;2.42;;
20146;SDS011;10234;50.856;15.716;2024-02-28T13:28:35;4.30;;;2.88;;
20146;SDS011;10234;50.856;15.716;2024-02-28T13:31:02;4.07;;;2.70;;
20146;SDS011;10234;50.856;15.716;2024-02-28T13:33:31;4.63;;;2.83;;
20146;SDS011;10234;50.856;15.716;2024-02-28T13:35:58;5.50;;;3.42;;
20146;SDS011;10234;50.856;15.716;2024-02-28T13:38:25;11.80;;;7.80;;
20146;SDS011;10234;50.856;15.716;2024-02-28T13:40:52;25.10;;;14.05;;
20146;SDS011;10234;50.856;15.716;2024-02-28T13:43:18;26.48;;;13.40;;
20146;SDS011;10234;50.856;15.716;2024-02-28T13:45:46;17.27;;;8.85;;
20146;SDS011;10234;50.856;15.716;2024-02-28T13:48:15;11.45;;;5.95;;
20146;SDS011;10234;50.856;15.716;2024-02-28T13:50:44;6.30;;;4.30;;
20146;SDS011;10234;50.856;15.716;2024-02-28T13:53:12;5.97;;;3.58;;
20146;SDS011;10234;50.856;15.716;2024-02-28T13:55:39;7.18;;;5.00;;
20146;SDS011;10234;50.856;15.716;2024-02-28T13:58:07;9.63;;;6.30;;
20146;SDS011;10234;50.856;15.716;2024-02-28T14:00:35;13.55;;;8.05;;
20146;SDS011;10234;50.856;15.716;2024-02-28T14:03:03;27.70;;;14.93;;
20146;SDS011;10234;50.856;15.716;2024-02-28T14:05:31;29.17;;;15.85;;
20146;SDS011;10234;50.856;15.716;2024-02-28T14:08:00;14.60;;;8.43;;
20146;SDS011;10234;50.856;15.716;2024-02-28T14:10:28;10.90;;;7.57;;
20146;SDS011;10234;50.856;15.716;2024-02-28T14:12:56;7.90;;;5.70;;
20146;SDS011;10234;50.856;15.716;2024-02-28T14:15:23;9.50;;;5.40;;
20146;SDS011;10234;50.856;15.716;2024-02-28T14:17:50;5.25;;;4.70;;
20146;SDS011;10234;50.856;15.716;2024-02-28T14:20:17;14.13;;;7.85;;
20146;SDS011;10234;50.856;15.716;2024-02-28T14:22:44;25.05;;;15.30;;
20146;SDS011;10234;50.856;15.716;2024-02-28T14:25:13;7.00;;;4.95;;
20146;SDS011;10234;50.856;15.716;2024-02-28T14:27:41;6.95;;;5.53;;